createdAt,value
2022-08-11T00:00:21.625Z,34.98
2022-08-11T00:00:52.929Z,35.25
2022-08-11T00:01:24.894Z,34.81
2022-08-11T00:01:56.214Z,34.98
2022-08-11T00:02:35.055Z,35.21
2022-08-11T00:03:06.886Z,34.96
2022-08-11T00:03:43.575Z,35.03
2022-08-11T00:04:15.530Z,35.18
2022-08-11T00:04:46.894Z,35.26
2022-08-11T00:05:21.493Z,34.97
2022-08-11T00:05:56.067Z,35.06
2022-08-11T00:06:29.200Z,34.96
2022-08-11T00:07:01.175Z,35.06
2022-08-11T00:07:32.469Z,35.10
2022-08-11T00:08:03.837Z,35.17
2022-08-11T00:08:35.194Z,35.18
2022-08-11T00:09:10.714Z,34.97
2022-08-11T00:09:42.029Z,35.24
2022-08-11T00:10:16.435Z,34.91
2022-08-11T00:10:51.518Z,35.27
2022-08-11T00:11:31.636Z,35.17
2022-08-11T00:12:03.114Z,35.01
2022-08-11T00:12:34.430Z,35.06
2022-08-11T00:13:05.817Z,35.22
2022-08-11T00:13:40.820Z,35.10
2022-08-11T00:14:19.300Z,35.25
2022-08-11T00:14:57.602Z,35.37
2022-08-11T00:15:36.950Z,35.23
2022-08-11T00:16:15.142Z,35.22
2022-08-11T00:17:00.409Z,35.15
2022-08-11T00:17:32.590Z,35.10
2022-08-11T00:18:03.967Z,35.26
2022-08-11T00:18:44.979Z,35.17
2022-08-11T00:19:20.133Z,35.10
2022-08-11T00:20:16.581Z,35.12
2022-08-11T00:20:48.541Z,35.38
2022-08-11T00:21:20.406Z,35.35
2022-08-11T00:22:11.746Z,35.28
2022-08-11T00:22:43.691Z,35.30
2022-08-11T00:23:17.444Z,35.21
2022-08-11T00:23:56.728Z,35.37
2022-08-11T00:24:49.356Z,35.30
2022-08-11T00:25:26.391Z,35.35
2022-08-11T00:25:57.717Z,35.24
2022-08-11T00:26:29.171Z,35.36
2022-08-11T00:27:00.505Z,35.12
2022-08-11T00:27:32.632Z,35.23
2022-08-11T00:28:04.036Z,35.46
2022-08-11T00:28:35.376Z,35.41
2022-08-11T00:29:10.393Z,35.20
2022-08-11T00:29:51.805Z,35.35
2022-08-11T00:30:23.368Z,35.14
2022-08-11T00:30:55.221Z,35.27
2022-08-11T00:31:28.306Z,35.20
2022-08-11T00:32:00.421Z,35.39
2022-08-11T00:32:31.752Z,35.17
2022-08-11T00:33:03.085Z,35.38
2022-08-11T00:33:44.631Z,35.44
2022-08-11T00:34:17.706Z,35.14
2022-08-11T00:34:49.180Z,35.41
2022-08-11T00:35:55.653Z,35.20
2022-08-11T00:36:13.229Z,35.19
2022-08-11T00:36:44.506Z,35.22
2022-08-11T00:37:19.489Z,35.17
2022-08-11T00:37:50.836Z,35.44
2022-08-11T00:38:25.752Z,35.27
2022-08-11T00:39:02.676Z,35.46
2022-08-11T00:39:34.975Z,35.20
2022-08-11T00:40:07.915Z,35.30
2022-08-11T00:40:42.754Z,35.13
2022-08-11T00:41:16.794Z,35.41
2022-08-11T00:42:06.957Z,35.37
2022-08-11T00:42:41.182Z,35.24
2022-08-11T00:43:21.026Z,35.41
2022-08-11T00:44:11.259Z,35.40
2022-08-11T00:44:50.680Z,35.30
2022-08-11T00:45:35.797Z,35.19
2022-08-11T00:46:16.346Z,35.30
2022-08-11T00:46:53.741Z,35.44
2022-08-11T00:47:25.014Z,35.20
2022-08-11T00:48:19.340Z,35.47
2022-08-11T00:48:53.435Z,35.44
2022-08-11T00:49:30.879Z,35.49
2022-08-11T00:50:02.150Z,35.42
2022-08-11T00:50:39.330Z,35.62
2022-08-11T00:51:15.475Z,35.52
2022-08-11T00:52:05.562Z,35.27
2022-08-11T00:52:56.336Z,35.29
2022-08-11T00:53:32.805Z,35.24
2022-08-11T00:54:28.401Z,35.42
2022-08-11T00:55:20.322Z,35.63
2022-08-11T00:56:10.152Z,35.52
2022-08-11T00:56:59.964Z,35.43
2022-08-11T00:57:46.533Z,35.25
2022-08-11T00:58:21.891Z,35.42
2022-08-11T00:59:03.170Z,35.09
2022-08-11T00:59:54.094Z,35.32
2022-08-11T01:00:26.149Z,35.25
2022-08-11T01:01:09.729Z,35.47
2022-08-11T01:01:41.063Z,35.62
2022-08-11T01:02:29.150Z,35.45
2022-08-11T01:03:16.840Z,35.08
2022-08-11T01:03:54.328Z,35.37
2022-08-11T01:04:28.395Z,35.44
2022-08-11T01:05:18.174Z,35.23
2022-08-11T01:06:08.249Z,35.28
2022-08-11T01:06:51.924Z,35.40
2022-08-11T01:08:00.622Z,35.34
2022-08-11T01:08:41.962Z,35.12
2022-08-11T01:09:22.223Z,35.15
2022-08-11T01:10:23.216Z,35.16
2022-08-11T01:11:09.448Z,35.15
2022-08-11T01:11:55.462Z,35.39
2022-08-11T01:12:42.909Z,35.23
2022-08-11T01:13:23.110Z,35.16
2022-08-11T01:14:06.396Z,35.16
2022-08-11T01:14:37.687Z,35.36
2022-08-11T01:15:20.521Z,35.35
2022-08-11T01:16:06.625Z,35.20
2022-08-11T01:16:58.269Z,35.09
2022-08-11T01:17:48.424Z,35.29
2022-08-11T01:18:28.434Z,35.17
2022-08-11T01:19:17.368Z,35.35
2022-08-11T01:20:47.328Z,35.38
2022-08-11T01:20:58.753Z,35.39
2022-08-11T01:21:33.124Z,35.48
2022-08-11T01:22:16.605Z,35.52
2022-08-11T01:23:00.330Z,35.54
2022-08-11T01:23:50.389Z,35.33
2022-08-11T01:24:33.780Z,35.58
2022-08-11T01:25:23.879Z,35.62
2022-08-11T01:25:57.552Z,35.64
2022-08-11T01:26:38.266Z,35.50
2022-08-11T01:27:19.092Z,35.42
2022-08-11T01:28:06.310Z,35.49
2022-08-11T01:28:47.976Z,35.32
2022-08-11T01:29:28.199Z,35.29
2022-08-11T01:29:59.514Z,35.61
2022-08-11T01:30:43.340Z,35.52
2022-08-11T01:31:26.708Z,35.62
2022-08-11T01:32:02.768Z,35.59
2022-08-11T01:33:00.371Z,35.27
2022-08-11T01:33:50.445Z,35.32
2022-08-11T01:34:27.572Z,35.64
2022-08-11T01:35:11.100Z,35.47
2022-08-11T01:36:14.851Z,35.34
2022-08-11T01:36:56.525Z,35.53
2022-08-11T01:37:46.773Z,35.43
2022-08-11T01:38:36.779Z,35.49
2022-08-11T01:39:08.205Z,35.48
2022-08-11T01:39:39.624Z,35.60
2022-08-11T01:40:13.572Z,35.49
2022-08-11T01:40:56.796Z,35.51
2022-08-11T01:41:43.457Z,35.53
2022-08-11T01:42:35.798Z,35.41
2022-08-11T01:43:14.156Z,35.62
2022-08-11T01:43:45.452Z,35.31
2022-08-11T01:44:35.082Z,35.39
2022-08-11T01:45:08.095Z,35.47
2022-08-11T01:45:44.211Z,35.52
2022-08-11T01:46:16.940Z,35.60
2022-08-11T01:47:06.849Z,35.16
2022-08-11T01:47:58.815Z,35.45
2022-08-11T01:48:41.148Z,35.29
2022-08-11T01:50:06.618Z,35.52
2022-08-11T01:50:21.186Z,35.37
2022-08-11T01:50:55.145Z,35.30
2022-08-11T01:51:45.402Z,35.45
2022-08-11T01:52:31.052Z,35.22
2022-08-11T01:53:41.702Z,35.46
2022-08-11T01:54:18.794Z,35.31
2022-08-11T01:54:54.180Z,35.60
2022-08-11T01:55:27.546Z,35.42
2022-08-11T01:56:17.393Z,35.42
2022-08-11T01:57:21.088Z,35.24
2022-08-11T01:57:55.231Z,35.39
2022-08-11T01:58:43.582Z,35.55
2022-08-11T01:59:41.628Z,35.41
2022-08-11T02:00:14.993Z,35.47
2022-08-11T02:00:55.022Z,35.46
2022-08-11T02:01:35.923Z,35.34
2022-08-11T02:02:17.756Z,35.39
2022-08-11T02:03:08.274Z,35.30
2022-08-11T02:03:43.521Z,35.54
2022-08-11T02:04:14.780Z,35.42
2022-08-11T02:05:07.519Z,35.48
2022-08-11T02:05:47.130Z,35.45
2022-08-11T02:06:31.235Z,35.57
2022-08-11T02:07:04.894Z,35.63
2022-08-11T02:07:58.193Z,35.58
2022-08-11T02:08:39.647Z,35.45
2022-08-11T02:09:20.580Z,35.51
2022-08-11T02:10:01.053Z,35.62
2022-08-11T02:10:38.662Z,35.65
2022-08-11T02:11:30.237Z,35.48
2022-08-11T02:12:03.440Z,35.42
2022-08-11T02:12:39.848Z,35.62
2022-08-11T02:13:19.354Z,35.65
2022-08-11T02:14:43.079Z,35.44
2022-08-11T02:15:29.417Z,35.44
2022-08-11T02:16:23.899Z,35.56
2022-08-11T02:17:11.129Z,35.39
2022-08-11T02:17:48.020Z,35.45
2022-08-11T02:18:24.964Z,35.30
2022-08-11T02:19:01.033Z,35.32
2022-08-11T02:19:38.417Z,35.51
2022-08-11T02:20:26.396Z,35.27
2022-08-11T02:21:00.050Z,35.23
2022-08-11T02:21:37.574Z,35.49
2022-08-11T02:22:17.200Z,35.45
2022-08-11T02:22:48.478Z,35.35
2022-08-11T02:24:04.763Z,35.38
2022-08-11T02:24:24.360Z,35.30
2022-08-11T02:24:55.648Z,35.16
2022-08-11T02:25:37.364Z,35.34
2022-08-11T02:26:19.117Z,35.32
2022-08-11T02:26:55.752Z,35.33
2022-08-11T02:27:27.871Z,35.33
2022-08-11T02:28:01.285Z,35.51
2022-08-11T02:28:54.270Z,35.60
2022-08-11T02:29:29.603Z,35.32
2022-08-11T02:30:02.332Z,35.65
2022-08-11T02:30:35.478Z,35.51
2022-08-11T02:31:15.523Z,35.77
2022-08-11T02:32:25.485Z,35.75
2022-08-11T02:33:08.492Z,35.67
2022-08-11T02:33:39.806Z,35.67
2022-08-11T02:34:20.284Z,35.56
2022-08-11T02:35:09.938Z,35.52
2022-08-11T02:35:44.173Z,35.47
2022-08-11T02:36:17.155Z,35.42
2022-08-11T02:37:07.276Z,35.56
2022-08-11T02:37:48.366Z,35.37
2022-08-11T02:38:19.665Z,35.60
2022-08-11T02:38:57.118Z,35.50
2022-08-11T02:39:31.886Z,35.35
2022-08-11T02:40:12.049Z,35.50
2022-08-11T02:40:43.339Z,35.37
2022-08-11T02:41:23.874Z,35.52
2022-08-11T02:41:58.980Z,35.29
2022-08-11T02:42:36.040Z,35.55
2022-08-11T02:43:11.129Z,35.43
2022-08-11T02:43:51.268Z,35.32
2022-08-11T02:44:41.458Z,35.43
2022-08-11T02:45:16.335Z,35.31
2022-08-11T02:46:06.084Z,35.48
2022-08-11T02:46:49.858Z,35.58
2022-08-11T02:47:39.951Z,35.44
2022-08-11T02:48:25.514Z,35.46
2022-08-11T02:49:00.897Z,35.20
2022-08-11T02:49:34.941Z,35.29
2022-08-11T02:50:12.303Z,35.38
2022-08-11T02:51:02.468Z,35.51
2022-08-11T02:51:52.572Z,35.49
2022-08-11T02:52:59.480Z,35.46
2022-08-11T02:53:37.984Z,35.48
2022-08-11T02:54:14.920Z,35.46
2022-08-11T02:54:52.306Z,35.52
2022-08-11T02:55:56.804Z,35.58
2022-08-11T02:56:42.307Z,35.58
2022-08-11T02:57:19.206Z,35.38
2022-08-11T02:57:55.303Z,35.71
2022-08-11T02:58:33.422Z,35.54
2022-08-11T02:59:08.423Z,35.46
2022-08-11T02:59:58.294Z,35.52
2022-08-11T03:00:30.156Z,35.54
2022-08-11T03:01:16.428Z,35.64
2022-08-11T03:02:06.382Z,35.51
2022-08-11T03:02:40.594Z,35.48
2022-08-11T03:03:11.867Z,35.46
2022-08-11T03:03:45.610Z,35.59
2022-08-11T03:04:24.732Z,35.44
2022-08-11T03:05:11.878Z,35.28
2022-08-11T03:06:01.742Z,35.42
2022-08-11T03:06:45.258Z,35.35
2022-08-11T03:07:29.160Z,35.57
2022-08-11T03:08:07.464Z,35.49
2022-08-11T03:08:57.657Z,35.57
2022-08-11T03:09:42.324Z,35.44
2022-08-11T03:10:28.154Z,35.41
2022-08-11T03:11:07.877Z,35.55
2022-08-11T03:11:52.604Z,35.38
2022-08-11T03:12:42.526Z,35.28
2022-08-11T03:13:22.036Z,35.50
2022-08-11T03:14:11.906Z,35.34
2022-08-11T03:15:00.153Z,35.25
2022-08-11T03:15:32.146Z,35.46
2022-08-11T03:16:09.971Z,35.37
2022-08-11T03:16:43.590Z,35.35
2022-08-11T03:17:14.883Z,35.27
2022-08-11T03:17:53.999Z,35.29
2022-08-11T03:18:29.804Z,35.34
2022-08-11T03:19:07.016Z,35.28
2022-08-11T03:19:56.992Z,35.22
2022-08-11T03:20:33.184Z,35.29
2022-08-11T03:21:11.472Z,35.21
2022-08-11T03:22:02.544Z,35.18
2022-08-11T03:22:37.324Z,35.45
2022-08-11T03:23:20.131Z,35.29
2022-08-11T03:24:24.178Z,35.28
2022-08-11T03:25:00.790Z,35.36
2022-08-11T03:25:38.380Z,35.37
2022-08-11T03:26:31.948Z,35.50
2022-08-11T03:27:08.104Z,35.12
2022-08-11T03:27:47.444Z,35.30
2022-08-11T03:28:41.905Z,35.29
2022-08-11T03:29:25.136Z,35.13
2022-08-11T03:30:14.770Z,35.38
2022-08-11T03:30:46.081Z,35.41
2022-08-11T03:31:35.179Z,35.28
2022-08-11T03:32:10.902Z,35.45
2022-08-11T03:32:48.010Z,35.43
2022-08-11T03:33:23.519Z,35.32
2022-08-11T03:34:00.518Z,35.28
2022-08-11T03:34:35.408Z,35.11
2022-08-11T03:35:06.735Z,35.17
2022-08-11T03:35:40.260Z,35.25
2022-08-11T03:36:17.477Z,35.35
2022-08-11T03:37:16.005Z,35.31
2022-08-11T03:37:55.738Z,35.25
2022-08-11T03:38:30.635Z,35.29
2022-08-11T03:39:05.089Z,35.31
2022-08-11T03:39:56.810Z,35.19
2022-08-11T03:40:28.357Z,35.08
2022-08-11T03:41:05.124Z,35.27
2022-08-11T03:42:15.351Z,35.43
2022-08-11T03:42:52.888Z,35.22
2022-08-11T03:43:28.775Z,35.24
2022-08-11T03:44:14.878Z,35.41
2022-08-11T03:44:48.954Z,35.12
2022-08-11T03:45:22.717Z,35.18
2022-08-11T03:46:10.857Z,35.16
2022-08-11T03:46:51.347Z,35.03
2022-08-11T03:47:22.623Z,35.22
2022-08-11T03:47:56.633Z,35.27
2022-08-11T03:48:49.192Z,35.15
2022-08-11T03:49:38.955Z,35.25
2022-08-11T03:50:26.815Z,35.11
2022-08-11T03:51:15.557Z,35.38
2022-08-11T03:51:51.878Z,34.93
2022-08-11T03:52:28.454Z,34.98
2022-08-11T03:53:17.819Z,35.27
2022-08-11T03:53:54.920Z,35.44
2022-08-11T03:54:32.351Z,34.93
2022-08-11T03:55:19.818Z,35.10
2022-08-11T03:56:06.478Z,34.82
2022-08-11T03:56:52.026Z,35.16
2022-08-11T03:57:46.087Z,35.18
2022-08-11T03:58:41.611Z,35.00
2022-08-11T03:59:27.735Z,34.93
2022-08-11T04:00:14.239Z,35.21
2022-08-11T04:00:50.698Z,34.85
2022-08-11T04:01:40.610Z,35.05
2022-08-11T04:02:30.702Z,35.08
2022-08-11T04:03:04.991Z,35.18
2022-08-11T04:03:39.007Z,35.01
2022-08-11T04:04:28.818Z,35.06
2022-08-11T04:05:03.150Z,34.83
2022-08-11T04:05:49.429Z,34.98
2022-08-11T04:06:30.393Z,35.02
2022-08-11T04:07:10.863Z,34.89
2022-08-11T04:08:04.359Z,34.83
2022-08-11T04:08:41.425Z,34.88
2022-08-11T04:09:13.290Z,34.94
2022-08-11T04:09:54.661Z,34.85
2022-08-11T04:10:29.364Z,34.89
2022-08-11T04:11:06.557Z,34.72
2022-08-11T04:11:37.817Z,35.02
2022-08-11T04:12:36.318Z,34.90
2022-08-11T04:13:47.426Z,35.06
2022-08-11T04:14:27.621Z,34.78
2022-08-11T04:15:05.012Z,35.09
2022-08-11T04:15:42.062Z,35.01
2022-08-11T04:16:31.587Z,35.18
2022-08-11T04:17:22.825Z,34.86
2022-08-11T04:18:02.214Z,34.86
2022-08-11T04:18:52.299Z,34.71
2022-08-11T04:19:34.318Z,34.92
2022-08-11T04:20:08.354Z,35.02
2022-08-11T04:20:53.900Z,34.99
2022-08-11T04:21:35.249Z,34.98
2022-08-11T04:22:25.061Z,34.82
2022-08-11T04:23:02.381Z,34.80
2022-08-11T04:24:13.262Z,34.78
2022-08-11T04:24:50.788Z,35.00
2022-08-11T04:25:29.249Z,34.97
2022-08-11T04:26:19.346Z,35.14
2022-08-11T04:27:14.312Z,34.85
2022-08-11T04:27:53.519Z,34.91
2022-08-11T04:28:28.957Z,34.78
2022-08-11T04:29:04.036Z,34.83
2022-08-11T04:30:02.128Z,34.83
2022-08-11T04:30:55.936Z,34.68
2022-08-11T04:31:50.409Z,34.88
2022-08-11T04:32:29.697Z,34.74
2022-08-11T04:33:19.888Z,34.85
2022-08-11T04:33:58.335Z,34.90
2022-08-11T04:34:36.342Z,34.95
2022-08-11T04:35:19.609Z,35.03
2022-08-11T04:35:53.813Z,34.88
2022-08-11T04:36:37.453Z,34.99
2022-08-11T04:37:12.195Z,34.92
2022-08-11T04:37:51.291Z,34.79
2022-08-11T04:38:34.059Z,34.96
2022-08-11T04:39:16.110Z,34.88
2022-08-11T04:40:00.184Z,34.95
2022-08-11T04:40:40.269Z,34.92
2022-08-11T04:41:14.740Z,35.00
2022-08-11T04:42:05.073Z,34.87
2022-08-11T04:42:59.837Z,35.07
2022-08-11T04:44:02.816Z,34.88
2022-08-11T04:44:49.994Z,34.95
2022-08-11T04:45:39.415Z,35.12
2022-08-11T04:46:22.763Z,35.18
2022-08-11T04:46:58.868Z,34.89
2022-08-11T04:48:03.654Z,35.18
2022-08-11T04:48:35.322Z,34.98
2022-08-11T04:49:13.750Z,34.77
2022-08-11T04:50:15.728Z,34.96
2022-08-11T04:51:08.618Z,34.97
2022-08-11T04:51:55.395Z,34.98
2022-08-11T04:52:44.753Z,35.02
2022-08-11T04:53:42.248Z,35.18
2022-08-11T04:54:37.877Z,35.09
2022-08-11T04:55:11.942Z,35.06
2022-08-11T04:56:01.751Z,34.81
2022-08-11T04:56:33.300Z,35.01
2022-08-11T04:57:06.360Z,34.83
2022-08-11T04:57:51.626Z,34.90
2022-08-11T04:58:40.860Z,34.89
2022-08-11T04:59:20.057Z,35.09
2022-08-11T05:00:01.351Z,34.81
2022-08-11T05:00:38.115Z,34.91
2022-08-11T05:01:28.090Z,34.96
2022-08-11T05:02:17.986Z,35.00
2022-08-11T05:03:07.373Z,34.94
2022-08-11T05:03:43.129Z,35.03
2022-08-11T05:04:33.450Z,34.86
2022-08-11T05:05:23.628Z,34.67
2022-08-11T05:06:13.773Z,35.05
2022-08-11T05:06:45.091Z,35.01
2022-08-11T05:07:20.902Z,35.08
2022-08-11T05:08:24.632Z,35.11
2022-08-11T05:09:07.962Z,34.80
2022-08-11T05:09:51.362Z,35.20
2022-08-11T05:10:31.752Z,35.05
2022-08-11T05:11:22.079Z,35.02
2022-08-11T05:12:01.694Z,35.02
2022-08-11T05:12:36.124Z,35.06
2022-08-11T05:13:07.532Z,35.08
2022-08-11T05:13:44.584Z,34.76
2022-08-11T05:14:18.403Z,35.03
2022-08-11T05:14:54.316Z,34.99
2022-08-11T05:15:30.649Z,34.94
2022-08-11T05:16:04.003Z,34.89
2022-08-11T05:16:41.481Z,35.12
2022-08-11T05:17:14.700Z,34.90
2022-08-11T05:17:52.229Z,35.14
2022-08-11T05:18:24.016Z,34.72
2022-08-11T05:18:55.390Z,35.09
2022-08-11T05:19:26.785Z,35.19
2022-08-11T05:19:58.143Z,35.15
2022-08-11T05:20:29.532Z,34.97
2022-08-11T05:21:05.295Z,34.83
2022-08-11T05:21:44.450Z,34.89
2022-08-11T05:22:18.368Z,35.20
2022-08-11T05:22:50.767Z,34.90
2022-08-11T05:23:22.184Z,35.20
2022-08-11T05:23:57.835Z,35.05
2022-08-11T05:24:32.120Z,35.20
2022-08-11T05:25:07.024Z,35.24
2022-08-11T05:26:44.551Z,35.23
2022-08-11T05:26:47.438Z,35.21
2022-08-11T05:27:20.209Z,35.00
2022-08-11T05:27:54.463Z,35.05
2022-08-11T05:28:25.761Z,34.92
2022-08-11T05:29:00.192Z,35.01
2022-08-11T05:29:43.055Z,35.20
2022-08-11T05:30:14.486Z,35.09
2022-08-11T05:30:45.812Z,35.14
2022-08-11T05:31:17.996Z,34.94
2022-08-11T05:31:55.933Z,35.05
2022-08-11T05:32:29.094Z,34.91
2022-08-11T05:33:03.216Z,35.23
2022-08-11T05:33:35.670Z,34.97
2022-08-11T05:34:18.382Z,35.01
2022-08-11T05:34:52.429Z,35.19
2022-08-11T05:35:29.068Z,34.82
2022-08-11T05:36:23.193Z,35.10
2022-08-11T05:37:11.618Z,34.82
2022-08-11T05:37:46.388Z,35.19
2022-08-11T05:38:21.548Z,35.27
2022-08-11T05:39:03.223Z,35.25
2022-08-11T05:39:41.782Z,35.20
2022-08-11T05:40:13.677Z,35.10
2022-08-11T05:40:51.298Z,35.21
2022-08-11T05:41:25.473Z,34.89
2022-08-11T05:41:57.508Z,35.15
2022-08-11T05:42:30.563Z,35.26
2022-08-11T05:43:02.753Z,35.31
2022-08-11T05:43:34.122Z,35.32
2022-08-11T05:44:20.993Z,35.42
2022-08-11T05:44:53.785Z,35.15
2022-08-11T05:45:27.410Z,35.19
2022-08-11T05:46:18.782Z,35.21
2022-08-11T05:46:50.257Z,35.43
2022-08-11T05:47:24.868Z,35.22
2022-08-11T05:47:56.237Z,35.23
2022-08-11T05:48:34.580Z,35.17
2022-08-11T05:49:08.625Z,35.28
2022-08-11T05:49:40.075Z,35.38
2022-08-11T05:50:13.561Z,35.18
2022-08-11T05:50:53.020Z,35.18
2022-08-11T05:51:30.522Z,35.18
2022-08-11T05:52:04.918Z,35.31
2022-08-11T05:52:48.975Z,35.41
2022-08-11T05:53:26.871Z,35.38
2022-08-11T05:53:59.884Z,35.02
2022-08-11T05:54:31.488Z,35.31
2022-08-11T05:55:05.351Z,35.36
2022-08-11T05:55:58.358Z,35.34
2022-08-11T05:56:31.689Z,35.37
2022-08-11T05:57:03.048Z,35.34
2022-08-11T05:57:48.989Z,35.08
2022-08-11T05:58:23.107Z,35.39
2022-08-11T05:58:54.525Z,35.31
2022-08-11T05:59:25.845Z,35.26
2022-08-11T06:00:06.706Z,35.20
2022-08-11T06:00:44.777Z,35.14
2022-08-11T06:01:29.156Z,35.34
2022-08-11T06:02:03.718Z,35.19
2022-08-11T06:02:37.548Z,35.37
2022-08-11T06:03:08.996Z,35.46
2022-08-11T06:03:42.253Z,35.43
2022-08-11T06:04:29.810Z,35.26
2022-08-11T06:05:01.197Z,35.27
2022-08-11T06:05:32.886Z,35.48
2022-08-11T06:06:09.912Z,35.44
2022-08-11T06:06:57.043Z,35.26
2022-08-11T06:07:47.635Z,35.50
2022-08-11T06:08:27.629Z,35.37
2022-08-11T06:08:58.960Z,35.31
2022-08-11T06:09:36.189Z,35.44
2022-08-11T06:10:07.682Z,35.21
2022-08-11T06:10:40.990Z,35.45
2022-08-11T06:11:12.363Z,35.39
2022-08-11T06:11:45.058Z,35.46
2022-08-11T06:12:17.405Z,35.44
2022-08-11T06:12:50.983Z,35.48
2022-08-11T06:13:23.304Z,35.57
2022-08-11T06:13:54.634Z,35.34
2022-08-11T06:14:25.986Z,35.35
2022-08-11T06:14:57.378Z,35.38
2022-08-11T06:15:29.823Z,35.28
2022-08-11T06:16:06.314Z,35.55
2022-08-11T06:16:38.245Z,35.36
2022-08-11T06:17:09.567Z,35.48
2022-08-11T06:17:44.471Z,35.39
2022-08-11T06:18:15.851Z,35.17
2022-08-11T06:18:47.281Z,35.35
2022-08-11T06:19:19.519Z,35.28
2022-08-11T06:19:50.853Z,35.32
2022-08-11T06:20:22.196Z,35.42
2022-08-11T06:20:54.128Z,35.36
2022-08-11T06:21:25.505Z,35.50
2022-08-11T06:21:56.835Z,35.27
2022-08-11T06:22:28.211Z,35.44
2022-08-11T06:23:01.278Z,35.29
2022-08-11T06:23:32.822Z,35.33
2022-08-11T06:24:10.967Z,35.33
2022-08-11T06:24:42.460Z,35.46
2022-08-11T06:25:13.817Z,35.59
2022-08-11T06:25:45.154Z,35.42
2022-08-11T06:26:16.504Z,35.43
2022-08-11T06:27:10.804Z,35.61
2022-08-11T06:27:40.822Z,35.33
2022-08-11T06:28:13.490Z,35.39
2022-08-11T06:28:47.295Z,35.54
2022-08-11T06:29:18.628Z,35.80
2022-08-11T06:29:55.409Z,35.76
2022-08-11T06:30:45.142Z,35.47
2022-08-11T06:31:18.561Z,35.60
2022-08-11T06:31:53.659Z,35.57
2022-08-11T06:32:28.563Z,35.60
2022-08-11T06:32:59.923Z,35.53
2022-08-11T06:33:33.180Z,35.64
2022-08-11T06:34:27.078Z,35.68
2022-08-11T06:35:07.864Z,35.75
2022-08-11T06:36:00.138Z,35.53
2022-08-11T06:36:31.397Z,35.72
2022-08-11T06:37:08.706Z,35.83
2022-08-11T06:37:42.801Z,35.70
2022-08-11T06:38:15.777Z,35.62
2022-08-11T06:38:50.235Z,35.68
2022-08-11T06:39:27.580Z,35.96
2022-08-11T06:40:17.468Z,36.13
2022-08-11T06:40:58.522Z,35.88
2022-08-11T06:41:48.408Z,35.92
2022-08-11T06:42:32.839Z,35.91
2022-08-11T06:43:23.005Z,35.80
2022-08-11T06:43:58.950Z,35.77
2022-08-11T06:44:33.517Z,36.10
2022-08-11T06:45:12.878Z,35.98
2022-08-11T06:45:48.914Z,36.07
2022-08-11T06:46:28.441Z,35.93
2022-08-11T06:47:07.820Z,36.00
2022-08-11T06:47:42.357Z,36.00
2022-08-11T06:48:17.491Z,35.97
2022-08-11T06:48:48.862Z,36.21
2022-08-11T06:49:20.898Z,35.98
2022-08-11T06:49:52.233Z,36.13
2022-08-11T06:50:23.610Z,35.86
2022-08-11T06:51:03.334Z,36.08
2022-08-11T06:51:35.020Z,36.08
2022-08-11T06:52:12.822Z,36.04
2022-08-11T06:52:59.594Z,36.19
2022-08-11T06:53:32.194Z,35.94
2022-08-11T06:54:05.529Z,36.13
2022-08-11T06:54:37.444Z,35.98
2022-08-11T06:55:55.847Z,36.20
2022-08-11T06:56:02.355Z,35.98
2022-08-11T06:56:36.700Z,36.07
2022-08-11T06:58:01.161Z,36.11
2022-08-11T06:58:36.186Z,36.27
2022-08-11T06:59:07.512Z,36.30
2022-08-11T06:59:38.883Z,36.21
2022-08-11T07:00:10.758Z,36.30
2022-08-11T07:00:42.102Z,36.17
2022-08-11T07:01:14.297Z,36.09
2022-08-11T07:02:05.874Z,36.40
2022-08-11T07:02:37.758Z,36.32
2022-08-11T07:03:12.561Z,36.30
2022-08-11T07:03:44.776Z,36.27
2022-08-11T07:04:30.648Z,36.16
2022-08-11T07:05:01.993Z,36.22
2022-08-11T07:05:33.289Z,36.16
2022-08-11T07:06:06.391Z,36.16
2022-08-11T07:06:52.764Z,36.11
2022-08-11T07:07:53.315Z,36.13
2022-08-11T07:08:43.419Z,36.12
2022-08-11T07:09:34.996Z,36.14
2022-08-11T07:10:08.902Z,36.37
2022-08-11T07:10:45.970Z,36.18
2022-08-11T07:11:29.198Z,36.31
2022-08-11T07:12:09.205Z,36.34
2022-08-11T07:12:41.457Z,36.27
2022-08-11T07:13:44.335Z,36.31
2022-08-11T07:14:04.636Z,36.43
2022-08-11T07:14:38.510Z,36.27
2022-08-11T07:15:10.087Z,36.29
2022-08-11T07:16:10.966Z,36.29
2022-08-11T07:16:32.723Z,36.22
2022-08-11T07:17:04.055Z,36.32
2022-08-11T07:17:37.817Z,36.37
2022-08-11T07:18:11.922Z,36.31
2022-08-11T07:18:43.307Z,36.23
2022-08-11T07:19:16.741Z,36.43
2022-08-11T07:19:50.500Z,36.21
2022-08-11T07:20:21.863Z,36.25
2022-08-11T07:20:56.446Z,36.21
2022-08-11T07:22:00.645Z,36.23
2022-08-11T07:22:21.960Z,36.36
2022-08-11T07:22:57.102Z,36.29
2022-08-11T07:23:28.906Z,36.30
2022-08-11T07:24:01.318Z,36.31
2022-08-11T07:25:02.038Z,36.34
2022-08-11T07:25:28.134Z,36.46
2022-08-11T07:25:59.515Z,36.39
2022-08-11T07:26:30.865Z,36.53
2022-08-11T07:27:02.202Z,36.45
2022-08-11T07:27:37.694Z,36.50
2022-08-11T07:28:14.616Z,36.38
2022-08-11T07:28:46.710Z,36.50
2022-08-11T07:29:18.145Z,36.57
2022-08-11T07:29:49.586Z,36.42
2022-08-11T07:30:20.974Z,36.60
2022-08-11T07:30:54.131Z,36.28
2022-08-11T07:31:35.264Z,36.40
2022-08-11T07:32:09.506Z,36.46
2022-08-11T07:33:01.072Z,36.46
2022-08-11T07:34:05.758Z,36.72
2022-08-11T07:34:28.790Z,36.71
2022-08-11T07:35:07.022Z,36.68
2022-08-11T07:35:38.960Z,36.75
2022-08-11T07:36:10.280Z,36.76
2022-08-11T07:36:42.332Z,36.54
2022-08-11T07:37:15.131Z,36.80
2022-08-11T07:37:50.950Z,36.65
2022-08-11T07:38:38.409Z,36.58
2022-08-11T07:39:12.790Z,36.80
2022-08-11T07:39:44.251Z,36.91
2022-08-11T07:40:16.141Z,36.88
2022-08-11T07:40:47.497Z,36.91
2022-08-11T07:41:19.457Z,36.95
2022-08-11T07:41:51.267Z,36.82
2022-08-11T07:42:23.813Z,36.84
2022-08-11T07:42:55.116Z,36.82
2022-08-11T07:43:26.462Z,36.82
2022-08-11T07:43:58.056Z,37.06
2022-08-11T07:44:34.279Z,36.80
2022-08-11T07:45:06.702Z,36.73
2022-08-11T07:45:41.749Z,36.96
2022-08-11T07:46:13.122Z,36.87
2022-08-11T07:46:53.095Z,36.91
2022-08-11T07:47:24.420Z,36.95
2022-08-11T07:47:55.777Z,36.83
2022-08-11T07:48:27.134Z,37.00
2022-08-11T07:48:58.470Z,36.83
2022-08-11T07:49:30.712Z,36.93
2022-08-11T07:50:02.015Z,36.90
2022-08-11T07:50:33.336Z,36.81
2022-08-11T07:51:04.688Z,36.76
2022-08-11T07:51:36.030Z,36.53
2022-08-11T07:52:07.315Z,36.56
2022-08-11T07:52:38.806Z,36.42
2022-08-11T07:53:10.291Z,36.87
2022-08-11T07:53:57.920Z,36.68
2022-08-11T07:54:33.447Z,36.86
2022-08-11T07:55:06.159Z,36.89
2022-08-11T07:55:51.356Z,36.79
2022-08-11T07:56:31.275Z,36.51
2022-08-11T07:58:13.873Z,36.66
2022-08-11T07:58:16.520Z,36.59
2022-08-11T07:58:52.365Z,36.87
2022-08-11T07:59:24.805Z,36.94
2022-08-11T08:00:16.344Z,36.37
2022-08-11T08:00:51.638Z,36.76
2022-08-11T08:01:23.856Z,36.80
2022-08-11T08:01:55.266Z,36.66
2022-08-11T08:02:26.657Z,36.68
2022-08-11T08:03:00.447Z,36.59
2022-08-11T08:03:31.832Z,36.77
2022-08-11T08:04:03.386Z,36.75
2022-08-11T08:04:34.764Z,36.96
2022-08-11T08:05:06.244Z,36.74
2022-08-11T08:05:37.592Z,36.82
2022-08-11T08:06:28.417Z,36.75
2022-08-11T08:07:01.197Z,37.09
2022-08-11T08:07:32.536Z,36.73
2022-08-11T08:08:04.511Z,36.82
2022-08-11T08:08:36.129Z,36.87
2022-08-11T08:09:07.469Z,36.78
2022-08-11T08:09:38.815Z,36.83
2022-08-11T08:10:14.183Z,36.60
2022-08-11T08:10:47.464Z,36.91
2022-08-11T08:11:27.045Z,36.88
2022-08-11T08:11:59.938Z,36.94
2022-08-11T08:12:31.312Z,36.78
2022-08-11T08:13:02.604Z,36.80
2022-08-11T08:13:33.936Z,36.82
2022-08-11T08:14:05.804Z,36.91
2022-08-11T08:14:37.201Z,36.81
2022-08-11T08:15:08.914Z,36.53
2022-08-11T08:15:40.607Z,36.90
2022-08-11T08:16:11.932Z,36.61
2022-08-11T08:16:43.294Z,36.78
2022-08-11T08:17:14.614Z,36.69
2022-08-11T08:17:45.963Z,36.71
2022-08-11T08:18:37.329Z,36.78
2022-08-11T08:19:11.312Z,36.94
2022-08-11T08:19:48.630Z,36.70
2022-08-11T08:20:22.480Z,36.67
2022-08-11T08:20:54.625Z,36.69
2022-08-11T08:21:26.188Z,36.84
2022-08-11T08:22:06.131Z,36.68
2022-08-11T08:22:52.291Z,36.62
2022-08-11T08:23:26.815Z,36.53
2022-08-11T08:23:58.163Z,36.76
2022-08-11T08:24:29.475Z,36.92
2022-08-11T08:25:00.846Z,36.55
2022-08-11T08:25:32.829Z,36.65
2022-08-11T08:26:04.821Z,36.94
2022-08-11T08:26:36.262Z,36.76